Time;durP1;ratioP1;P1;durP2;ratioP2;P2;SDS_P1;SDS_P2;PMS_P1;PMS_P2;Temp;Humidity;BMP_temperature;BMP_pressure;BME280_temperature;BME280_humidity;BME280_pressure;Samples;Min_cycle;Max_cycle;Signal;HPM_P1;HPM_P2
2021/04/30 00:02:09;;;;;;;25.30;13.70;;;;;;;5.52;79.07;99676.00;10304328;28;20235;-70
2021/04/30 00:07:12;;;;;;;26.15;15.45;;;;;;;5.52;79.94;99681.34;10306621;28;20286;-70
2021/04/30 00:12:15;;;;;;;25.90;15.50;;;;;;;5.79;79.27;99671.34;10304357;28;20735;-71
2021/04/30 00:17:17;;;;;;;31.15;17.98;;;;;;;5.53;79.85;99675.03;10274667;28;20734;-70
2021/04/30 00:22:19;;;;;;;28.45;16.45;;;;;;;5.67;79.50;99685.53;10272236;28;20611;-70
2021/04/30 00:27:22;;;;;;;34.17;16.98;;;;;;;5.62;79.66;99683.22;10272059;28;20235;-70
2021/04/30 00:32:25;;;;;;;31.90;17.48;;;;;;;6.05;78.86;99684.59;10271737;28;21482;-70
2021/04/30 00:37:27;;;;;;;31.80;17.90;;;;;;;5.94;79.45;99699.53;10287171;28;20236;-70
2021/04/30 00:42:30;;;;;;;33.20;18.33;;;;;;;5.80;79.86;99701.53;10270155;28;20232;-70
2021/04/30 00:47:34;;;;;;;31.20;16.95;;;;;;;5.65;80.72;99712.31;10272682;28;20248;-70
2021/04/30 00:52:36;;;;;;;32.80;17.23;;;;;;;5.67;80.94;99717.53;10274407;28;20258;-71
2021/04/30 00:57:41;;;;;;;34.45;17.85;;;;;;;5.91;80.46;99722.91;10272144;28;20244;-71
2021/04/30 01:02:43;;;;;;;32.25;18.65;;;;;;;5.91;80.86;99728.25;10272163;28;20228;-71
2021/04/30 01:07:45;;;;;;;35.70;17.42;;;;;;;5.83;81.17;99719.94;10270244;28;20621;-71
2021/04/30 01:12:49;;;;;;;32.83;17.95;;;;;;;5.68;81.59;99737.91;10269622;28;20711;-71
2021/04/30 01:17:51;;;;;;;35.10;17.45;;;;;;;5.84;81.22;99737.63;10309069;28;20261;-71
2021/04/30 01:22:55;;;;;;;30.48;17.20;;;;;;;6.18;80.78;99746.72;10309801;28;20611;-71
2021/04/30 01:27:57;;;;;;;33.30;18.73;;;;;;;6.37;80.63;99754.25;10312495;28;20231;-71
2021/04/30 01:32:59;;;;;;;34.63;17.52;;;;;;;6.37;80.38;99756.91;10309948;28;20227;-71
2021/04/30 01:38:04;;;;;;;32.22;15.90;;;;;;;6.21;80.39;99762.50;10312386;28;21457;-71
2021/04/30 01:43:08;;;;;;;28.98;15.63;;;;;;;6.15;80.92;99766.47;10310560;28;20708;-71
2021/04/30 01:48:13;;;;;;;31.50;16.98;;;;;;;6.30;80.75;99777.81;10309437;28;20226;-71
2021/04/30 01:53:18;;;;;;;30.75;16.73;;;;;;;6.20;80.87;99784.81;10307111;28;20235;-71
2021/04/30 01:58:21;;;;;;;33.55;16.85;;;;;;;6.25;80.75;99792.47;10308139;28;20245;-71
2021/04/30 02:03:23;;;;;;;36.15;18.90;;;;;;;6.15;81.20;99797.63;10310280;28;21747;-71
2021/04/30 02:08:26;;;;;;;33.10;17.80;;;;;;;6.28;80.85;99798.44;10324955;28;20246;-71
2021/04/30 02:13:28;;;;;;;36.03;18.33;;;;;;;6.38;80.57;99799.47;10307943;28;20621;-71
2021/04/30 02:18:30;;;;;;;40.13;18.60;;;;;;;6.45;80.64;99809.72;10167997;28;20252;-71
2021/04/30 02:23:33;;;;;;;34.55;18.90;;;;;;;6.44;80.72;99821.31;10157040;28;20246;-71
2021/04/30 02:28:35;;;;;;;35.92;17.70;;;;;;;6.49;80.46;99821.84;10147485;28;20283;-71
2021/04/30 02:33:37;;;;;;;33.55;16.67;;;;;;;6.56;80.42;99831.13;10142266;28;21418;-71
2021/04/30 02:38:40;;;;;;;33.53;17.08;;;;;;;6.61;80.53;99826.31;10141558;28;20271;-71
2021/04/30 02:43:42;;;;;;;32.97;16.55;;;;;;;6.69;80.51;99834.59;10140966;28;20239;-71
2021/04/30 02:48:45;;;;;;;32.80;15.75;;;;;;;6.47;80.23;99845.13;10141035;28;20235;-71
2021/04/30 02:53:48;;;;;;;33.95;17.80;;;;;;;6.57;80.42;99839.00;10141318;28;20253;-71
2021/04/30 02:58:53;;;;;;;34.55;17.08;;;;;;;6.79;80.83;99848.94;10156791;28;20255;-71
2021/04/30 03:03:55;;;;;;;34.38;17.42;;;;;;;6.91;80.62;99847.25;10143355;28;20254;-71
2021/04/30 03:08:59;;;;;;;36.38;19.23;;;;;;;6.92;80.44;99851.59;10145318;28;20243;-71
2021/04/30 03:14:01;;;;;;;36.67;18.27;;;;;;;6.78;80.58;99849.94;10149092;28;20242;-71
2021/04/30 03:19:03;;;;;;;38.88;19.00;;;;;;;6.76;80.40;99851.00;10182200;28;21713;-71
2021/04/30 03:24:07;;;;;;;38.92;18.75;;;;;;;6.76;80.36;99854.53;10192639;28;20304;-71
2021/04/30 03:29:09;;;;;;;42.78;20.75;;;;;;;6.73;80.44;99862.75;10190961;28;20734;-71
2021/04/30 03:34:11;;;;;;;40.13;19.60;;;;;;;6.73;80.42;99870.75;10190767;28;20246;-71
2021/04/30 03:39:14;;;;;;;36.97;19.25;;;;;;;6.71;80.37;99875.34;10188738;28;20239;-71
2021/04/30 03:44:16;;;;;;;39.20;19.42;;;;;;;6.68;80.45;99878.25;10184630;28;20230;-71
2021/04/30 03:49:18;;;;;;;40.55;20.27;;;;;;;6.68;80.42;99883.59;10193535;28;20274;-71
2021/04/30 03:54:21;;;;;;;42.30;21.65;;;;;;;6.66;80.21;99888.19;10184697;28;21250;-71
2021/04/30 03:59:23;;;;;;;40.25;21.02;;;;;;;6.78;80.45;99897.97;10198810;28;20273;-71
2021/04/30 04:04:25;;;;;;;43.50;20.02;;;;;;;6.77;80.51;99901.59;10184863;28;20238;-71
2021/04/30 04:09:28;;;;;;;48.00;22.25;;;;;;;6.78;80.49;99910.47;10186581;28;20234;-71
2021/04/30 04:14:31;;;;;;;49.03;24.00;;;;;;;6.72;80.12;99911.78;10177717;28;20285;-71
2021/04/30 04:19:33;;;;;;;46.22;24.27;;;;;;;6.77;80.32;99908.75;10143296;28;20250;-71
2021/04/30 04:24:35;;;;;;;44.83;22.80;;;;;;;6.83;80.44;99919.84;10147091;28;20240;-71
2021/04/30 04:29:38;;;;;;;48.88;23.95;;;;;;;6.85;80.42;99920.56;10143751;28;20242;-71
2021/04/30 04:34:40;;;;;;;47.42;25.15;;;;;;;6.88;79.95;99922.19;10147108;28;20252;-71
2021/04/30 04:39:43;;;;;;;50.53;24.42;;;;;;;6.94;80.23;99928.91;10145117;28;20724;-71
2021/04/30 04:44:45;;;;;;;47.70;23.85;;;;;;;6.79;79.51;99937.03;10148290;28;20249;-71
2021/04/30 04:49:47;;;;;;;46.97;24.77;;;;;;;6.83;79.26;99948.38;10146938;28;20352;-71
2021/04/30 04:54:50;;;;;;;52.65;24.23;;;;;;;6.98;79.65;99959.78;10143292;28;20249;-71
2021/04/30 04:59:52;;;;;;;52.85;25.02;;;;;;;6.92;79.44;99961.09;10141330;28;20237;-71
2021/04/30 05:04:53;;;;;;;51.53;24.27;;;;;;;6.88;79.40;99961.41;10140766;28;20248;-71
2021/04/30 05:09:56;;;;;;;48.83;24.63;;;;;;;7.04;79.80;99964.66;10143795;28;21514;-71
2021/04/30 05:14:58;;;;;;;49.13;24.40;;;;;;;7.05;79.65;99969.91;10159271;28;20234;-71
2021/04/30 05:20:00;;;;;;;52.03;26.55;;;;;;;7.04;79.61;99986.03;10186122;28;20239;-71
2021/04/30 05:25:03;;;;;;;49.25;23.85;;;;;;;7.01;78.70;99991.59;10182667;28;20637;-71
2021/04/30 05:30:06;;;;;;;53.03;24.38;;;;;;;7.11;79.09;99989.97;10181518;28;20948;-71
2021/04/30 05:35:11;;;;;;;45.78;24.85;;;;;;;7.27;79.53;100000.41;10182479;28;20242;-71
2021/04/30 05:40:15;;;;;;;50.63;25.00;;;;;;;7.23;78.11;99998.91;10179440;28;20254;-71
2021/04/30 05:45:17;;;;;;;48.30;24.60;;;;;;;7.31;78.77;99999.19;10179838;28;20781;-71
2021/04/30 05:50:19;;;;;;;46.80;24.48;;;;;;;7.49;79.24;99991.66;10140714;28;20747;-70
2021/04/30 05:55:22;;;;;;;50.85;25.80;;;;;;;7.42;78.26;99988.56;10099790;28;20236;-70
2021/04/30 06:00:24;;;;;;;49.97;23.98;;;;;;;7.40;78.56;99998.50;10116307;28;20243;-70
2021/04/30 06:05:26;;;;;;;45.58;23.50;;;;;;;7.31;77.60;100015.22;10188958;28;20236;-70
2021/04/30 06:10:29;;;;;;;45.33;23.75;;;;;;;7.34;78.00;100006.13;10229167;28;20252;-70
2021/04/30 06:15:31;;;;;;;32.75;16.73;;;;;;;7.31;77.83;100004.53;10285543;28;20246;-70
2021/04/30 06:20:33;;;;;;;40.83;22.20;;;;;;;7.38;78.20;100005.81;10306699;28;20242;-70
2021/04/30 06:25:36;;;;;;;56.72;25.42;;;;;;;7.54;78.27;100002.81;10311001;28;20319;-70
2021/04/30 06:30:38;;;;;;;54.05;25.60;;;;;;;7.65;77.82;100002.03;10308028;28;20238;-70
2021/04/30 06:35:40;;;;;;;47.72;23.40;;;;;;;7.64;76.78;100006.53;10308438;28;20806;-70
2021/04/30 06:40:43;;;;;;;49.50;25.27;;;;;;;7.82;77.46;100000.78;10271118;28;20224;-70
2021/04/30 06:45:44;;;;;;;41.25;21.75;;;;;;;8.10;77.95;100013.75;10270476;28;20243;-70
2021/04/30 06:50:46;;;;;;;33.58;18.58;;;;;;;8.31;77.92;100002.34;10271565;28;20627;-70
2021/04/30 06:55:50;;;;;;;36.60;19.92;;;;;;;8.71;78.53;100013.50;10268063;28;20254;-70
2021/04/30 07:00:51;;;;;;;36.70;19.98;;;;;;;8.84;76.78;100021.44;10267795;28;20358;-70
2021/04/30 07:05:53;;;;;;;37.00;19.50;;;;;;;8.67;74.02;100033.47;10283991;28;20346;-70
2021/04/30 07:10:56;;;;;;;36.70;20.65;;;;;;;8.84;73.84;100027.63;10267268;28;20234;-70
2021/04/30 07:15:58;;;;;;;39.22;20.85;;;;;;;9.15;70.08;100022.47;10290258;28;20243;-70
2021/04/30 07:21:00;;;;;;;40.97;23.02;;;;;;;9.21;69.79;100021.97;10320954;28;20239;-70
2021/04/30 07:26:03;;;;;;;39.63;21.35;;;;;;;9.88;70.99;100025.50;10307751;28;20249;-70
2021/04/30 07:31:05;;;;;;;40.88;23.00;;;;;;;9.59;68.57;100035.91;10306173;28;20239;-70
2021/04/30 07:36:07;;;;;;;44.13;23.17;;;;;;;9.98;68.12;100031.75;10306253;28;20235;-70
2021/04/30 07:41:11;;;;;;;44.92;23.90;;;;;;;9.75;66.48;100043.56;10305563;28;20238;-70
2021/04/30 07:46:13;;;;;;;47.78;24.23;;;;;;;9.60;68.63;100059.94;10305776;28;20718;-70
2021/04/30 07:51:15;;;;;;;47.40;24.73;;;;;;;9.61;69.72;100056.28;10304016;28;20242;-70
2021/04/30 07:56:18;;;;;;;44.95;23.02;;;;;;;9.61;66.94;100045.53;10255242;28;20610;-70
2021/04/30 08:01:20;;;;;;;41.80;22.73;;;;;;;9.72;65.10;100047.34;10275337;28;20231;-70
2021/04/30 08:06:22;;;;;;;42.30;22.80;;;;;;;10.31;63.56;100056.72;10266515;28;20729;-71
2021/04/30 08:11:24;;;;;;;41.58;23.42;;;;;;;9.87;64.73;100064.00;10264717;28;20231;-70
2021/04/30 08:16:26;;;;;;;41.08;22.08;;;;;;;9.95;63.27;100064.22;10290318;28;20242;-71
2021/04/30 08:21:32;;;;;;;40.25;22.52;;;;;;;9.98;64.08;100061.28;10305479;28;20315;-70
2021/04/30 08:26:35;;;;;;;41.03;21.83;;;;;;;10.02;62.98;100072.63;10304297;28;20251;-70
2021/04/30 08:31:38;;;;;;;40.60;22.77;;;;;;;9.96;63.57;100065.09;10306700;28;20612;-70
2021/04/30 08:36:40;;;;;;;42.28;22.35;;;;;;;9.61;63.71;100069.69;10307246;28;20237;-70
2021/04/30 08:41:43;;;;;;;42.03;22.70;;;;;;;9.48;64.40;100066.28;10308544;28;20227;-70
2021/04/30 08:46:45;;;;;;;40.20;22.27;;;;;;;9.46;65.16;100065.56;10246796;28;20232;-70
2021/04/30 08:51:47;;;;;;;37.72;22.52;;;;;;;9.56;64.62;100063.00;10249591;28;20328;-70
2021/04/30 08:56:51;;;;;;;42.58;23.65;;;;;;;9.70;64.31;100071.59;10252362;28;21609;-70
2021/04/30 09:01:54;;;;;;;40.67;21.90;;;;;;;9.62;63.75;100071.38;10251201;28;21792;-71
2021/04/30 09:06:56;;;;;;;42.38;23.23;;;;;;;9.99;63.25;100076.41;10233971;28;20240;-71
2021/04/30 09:12:00;;;;;;;39.90;21.40;;;;;;;9.91;62.59;100070.84;10231826;28;20248;-71
2021/04/30 09:17:06;;;;;;;40.50;21.15;;;;;;;10.04;62.83;100070.66;10264582;28;20236;-70
2021/04/30 09:22:15;;;;;;;39.08;22.67;;;;;;;10.30;61.83;100073.84;10231431;28;20722;-71
2021/04/30 09:27:29;;;;;;;42.75;21.65;;;;;;;10.16;61.67;100083.91;10247861;28;20764;-70
2021/04/30 09:32:31;;;;;;;41.75;22.33;;;;;;;10.20;61.13;100089.84;10251451;28;20243;-70
2021/04/30 09:37:33;;;;;;;37.28;19.30;;;;;;;10.13;61.06;100089.53;10249189;28;20246;-70
2021/04/30 09:42:38;;;;;;;36.25;20.92;;;;;;;10.29;60.63;100090.94;10253589;28;20246;-71
2021/04/30 09:47:40;;;;;;;37.65;21.77;;;;;;;10.14;60.61;100099.28;10272195;28;20240;-71
2021/04/30 09:52:53;;;;;;;38.95;21.27;;;;;;;9.99;61.01;100100.56;10271771;28;20250;-71
2021/04/30 09:57:56;;;;;;;36.25;21.85;;;;;;;10.28;60.67;100108.00;10268229;28;20263;-71
2021/04/30 10:03:11;;;;;;;37.72;20.92;;;;;;;10.56;60.13;100096.63;10270437;28;20231;-71
2021/04/30 10:08:14;;;;;;;36.05;20.20;;;;;;;10.30;60.63;100111.41;10273063;28;20244;-71
2021/04/30 10:13:17;;;;;;;37.10;21.10;;;;;;;10.07;60.36;100108.00;10269284;28;20235;-70
2021/04/30 10:18:19;;;;;;;35.47;21.27;;;;;;;9.89;61.17;100102.31;10311150;28;20250;-70
2021/04/30 10:23:22;;;;;;;37.45;20.48;;;;;;;9.98;61.29;100104.22;10310079;28;20277;-70
2021/04/30 10:28:29;;;;;;;36.22;21.15;;;;;;;9.76;61.51;100106.94;10308595;28;20239;-70
2021/04/30 10:33:37;;;;;;;36.30;20.02;;;;;;;9.95;61.79;100104.47;10259507;28;20244;-71
2021/04/30 10:38:43;;;;;;;36.53;21.35;;;;;;;9.74;61.71;100107.09;10268284;28;20244;-71
2021/04/30 10:43:51;;;;;;;36.85;20.63;;;;;;;9.82;62.20;100115.34;10231123;28;20348;-70
2021/04/30 10:49:19;;;;;;;33.97;20.75;;;;;;;9.62;61.16;100116.13;10228971;28;20229;-71
2021/04/30 10:54:26;;;;;;;36.70;20.08;;;;;;;9.68;61.15;100113.81;10228996;28;20240;-71
2021/04/30 10:59:41;;;;;;;39.67;19.85;;;;;;;9.60;61.77;100118.94;10229620;28;20269;-71
2021/04/30 11:05:09;;;;;;;34.92;20.05;;;;;;;9.63;62.30;100121.38;10243875;28;21536;-71
2021/04/30 11:10:39;;;;;;;34.30;20.52;;;;;;;9.70;62.46;100119.03;10227252;28;20242;-70
2021/04/30 11:15:59;;;;;;;34.22;19.80;;;;;;;9.56;62.61;100122.81;10268230;28;20234;-70
2021/04/30 11:21:08;;;;;;;37.17;21.63;;;;;;;9.44;62.13;100122.00;10309179;28;20812;-70
2021/04/30 11:26:13;;;;;;;38.20;21.48;;;;;;;9.35;62.24;100117.38;10309934;28;20242;-69
2021/04/30 11:31:18;;;;;;;34.90;20.27;;;;;;;9.60;62.30;100104.66;10312541;28;20239;-69
2021/04/30 11:36:21;;;;;;;38.80;21.77;;;;;;;9.71;60.97;100099.28;10309113;28;20613;-71
2021/04/30 11:41:23;;;;;;;39.83;21.48;;;;;;;9.86;61.47;100105.25;10310080;28;20261;-71
2021/04/30 11:46:26;;;;;;;36.13;19.98;;;;;;;10.11;60.96;100107.59;10311634;28;20246;-71
2021/04/30 11:51:28;;;;;;;38.60;20.98;;;;;;;10.02;61.24;100115.56;10307295;28;20242;-71
2021/04/30 11:56:30;;;;;;;41.90;22.83;;;;;;;9.62;62.97;100118.78;10309269;28;20246;-69
2021/04/30 12:01:34;;;;;;;38.80;22.27;;;;;;;9.52;63.61;100129.44;10307322;28;20735;-70
2021/04/30 12:06:36;;;;;;;39.70;21.17;;;;;;;9.72;62.31;100123.28;10307042;28;20657;-70
2021/04/30 12:11:38;;;;;;;40.85;21.92;;;;;;;10.08;62.36;100129.31;10307661;28;20608;-70
2021/04/30 12:16:41;;;;;;;40.85;23.00;;;;;;;10.04;62.21;100127.00;10285099;28;21756;-69
2021/04/30 12:21:43;;;;;;;40.90;21.98;;;;;;;10.08;61.99;100121.25;10275435;28;20318;-74
2021/04/30 12:26:45;;;;;;;41.50;21.85;;;;;;;10.02;62.06;100110.19;10277366;28;20232;-71
2021/04/30 12:31:48;;;;;;;42.80;23.08;;;;;;;10.39;60.63;100119.56;10275410;28;20238;-71
2021/04/30 12:36:51;;;;;;;44.95;23.35;;;;;;;10.53;60.34;100118.41;10272191;28;20250;-71
2021/04/30 12:41:53;;;;;;;39.53;22.38;;;;;;;10.95;59.77;100118.34;10284968;28;20257;-70
2021/04/30 12:46:56;;;;;;;40.40;21.90;;;;;;;10.73;57.86;100121.22;10273648;28;20246;-69
2021/04/30 12:51:58;;;;;;;42.33;22.17;;;;;;;10.80;58.59;100108.94;10272889;28;20316;-70
2021/04/30 12:57:01;;;;;;;38.58;21.25;;;;;;;11.01;57.32;100106.22;10270953;28;21420;-70
2021/04/30 13:02:11;;;;;;;34.85;20.73;;;;;;;10.74;57.75;100106.78;10274095;28;20235;-70
2021/04/30 13:07:15;;;;;;;32.72;19.65;;;;;;;10.92;56.40;100096.28;10265960;28;20621;-70
2021/04/30 13:12:19;;;;;;;31.40;20.10;;;;;;;12.05;54.22;100096.06;10256680;28;20255;-70
2021/04/30 13:17:25;;;;;;;33.75;19.73;;;;;;;13.14;50.65;100086.69;10267281;28;20239;-70
2021/04/30 13:22:27;;;;;;;34.90;19.92;;;;;;;12.65;51.11;100094.06;10250757;28;20527;-70
2021/04/30 13:27:29;;;;;;;33.40;20.05;;;;;;;12.37;51.03;100093.97;10320194;28;20246;-70
2021/04/30 13:32:51;;;;;;;34.67;20.45;;;;;;;12.25;51.71;100088.84;10312418;28;20247;-70
2021/04/30 13:37:58;;;;;;;38.25;23.13;;;;;;;11.90;56.62;100092.91;10312499;28;20247;-69
2021/04/30 13:43:01;;;;;;;40.75;23.73;;;;;;;11.55;58.12;100085.38;10309706;28;20844;-69
2021/04/30 13:48:06;;;;;;;45.33;23.15;;;;;;;11.17;58.55;100085.09;10308410;28;20614;-69
2021/04/30 13:53:08;;;;;;;43.63;22.50;;;;;;;10.52;59.49;100094.34;10259108;28;21425;-69
2021/04/30 13:58:10;;;;;;;43.80;23.88;;;;;;;10.73;59.61;100091.66;10250803;28;20247;-69
2021/04/30 14:03:13;;;;;;;45.03;25.02;;;;;;;10.97;58.40;100094.91;10252689;28;20228;-69
2021/04/30 14:08:15;;;;;;;38.80;21.58;;;;;;;11.33;57.72;100089.13;10251769;28;20233;-70
2021/04/30 14:13:17;;;;;;;44.15;23.98;;;;;;;12.09;55.56;100092.94;10249752;28;20231;-70
2021/04/30 14:18:20;;;;;;;42.85;23.20;;;;;;;12.11;54.51;100095.50;10252732;28;20937;-69
2021/04/30 14:23:22;;;;;;;42.70;23.20;;;;;;;11.78;55.01;100100.28;10259530;28;20256;-70
2021/04/30 14:28:24;;;;;;;38.50;21.83;;;;;;;11.90;54.30;100101.00;10254875;28;20252;-70
2021/04/30 14:33:27;;;;;;;41.35;22.35;;;;;;;11.99;53.95;100102.88;10249659;28;20258;-69
2021/04/30 14:38:30;;;;;;;39.38;21.95;;;;;;;11.91;54.22;100108.09;10260650;28;20650;-70
2021/04/30 14:43:32;;;;;;;38.10;20.55;;;;;;;12.23;52.99;100098.88;10265303;28;20236;-70
2021/04/30 14:48:35;;;;;;;39.75;21.42;;;;;;;12.26;51.95;100095.91;10250010;28;20877;-69
2021/04/30 14:53:37;;;;;;;42.25;22.80;;;;;;;12.36;53.02;100104.88;10261476;28;20236;-69
2021/04/30 14:58:39;;;;;;;42.22;22.58;;;;;;;11.84;53.44;100105.09;10248062;28;20304;-70
2021/04/30 15:03:42;;;;;;;42.50;22.38;;;;;;;12.27;52.75;100089.53;10249695;28;20228;-70
2021/04/30 15:08:46;;;;;;;41.63;22.77;;;;;;;12.82;52.44;100084.38;10239851;28;20244;-70
2021/04/30 15:13:47;;;;;;;41.67;23.85;;;;;;;12.37;53.68;100087.75;10233568;28;20234;-69
2021/04/30 15:18:52;;;;;;;43.47;21.60;;;;;;;12.19;53.36;100084.88;10243077;28;20234;-70
2021/04/30 15:23:54;;;;;;;44.42;23.42;;;;;;;11.71;55.75;100088.34;10229789;28;20233;-69
2021/04/30 15:28:56;;;;;;;45.90;23.00;;;;;;;11.95;55.17;100088.81;10230773;28;20236;-70
2021/04/30 15:33:59;;;;;;;42.58;22.88;;;;;;;12.17;53.93;100081.47;10245317;28;20236;-70
2021/04/30 15:39:00;;;;;;;44.03;23.10;;;;;;;12.17;54.48;100076.06;10229981;28;20693;-70
2021/04/30 15:44:03;;;;;;;48.38;24.83;;;;;;;11.98;54.88;100085.00;10226521;28;20263;-70
2021/04/30 15:49:06;;;;;;;50.40;23.85;;;;;;;11.97;54.36;100087.84;10229680;28;20232;-69
2021/04/30 15:54:08;;;;;;;47.10;23.63;;;;;;;11.88;54.46;100078.78;10259405;28;20240;-69
2021/04/30 15:59:11;;;;;;;40.78;21.90;;;;;;;11.79;55.21;100080.44;10271946;28;20727;-70
2021/04/30 16:04:13;;;;;;;43.97;23.42;;;;;;;11.77;55.26;100074.38;10273912;28;20889;-69
2021/04/30 16:09:15;;;;;;;44.63;24.02;;;;;;;11.90;54.47;100066.00;10269457;28;20232;-69
2021/04/30 16:14:17;;;;;;;45.70;24.08;;;;;;;11.34;55.92;100072.84;10274479;28;20241;-70
2021/04/30 16:19:20;;;;;;;49.25;23.90;;;;;;;11.41;55.73;100063.25;10314556;28;20270;-69
2021/04/30 16:24:22;;;;;;;39.78;22.02;;;;;;;11.47;55.68;100062.69;10313096;28;20238;-71
2021/04/30 16:29:24;;;;;;;44.60;23.95;;;;;;;11.53;55.20;100069.38;10315035;28;20242;-70
2021/04/30 16:34:26;;;;;;;39.63;21.25;;;;;;;11.36;55.25;100065.50;10314615;28;20314;-69
2021/04/30 16:39:29;;;;;;;44.60;21.48;;;;;;;11.31;55.19;100067.75;10314040;28;20239;-69
2021/04/30 16:44:31;;;;;;;42.15;21.90;;;;;;;11.08;55.64;100074.28;10271493;28;20235;-70
2021/04/30 16:49:34;;;;;;;36.30;19.80;;;;;;;11.05;55.43;100073.56;10235097;28;20303;-70
2021/04/30 16:54:38;;;;;;;35.17;19.90;;;;;;;11.09;54.90;100065.25;10232733;28;20819;-68
2021/04/30 16:59:40;;;;;;;34.65;18.92;;;;;;;10.80;55.74;100066.78;10234449;28;20255;-70
2021/04/30 17:04:44;;;;;;;38.90;20.70;;;;;;;10.79;55.94;100067.78;10257271;28;20239;-70
2021/04/30 17:09:46;;;;;;;38.40;19.85;;;;;;;10.66;56.77;100067.13;10273580;28;20235;-69
2021/04/30 17:14:48;;;;;;;38.75;21.25;;;;;;;10.56;56.41;100072.47;10300245;28;20231;-70
2021/04/30 17:19:51;;;;;;;40.30;21.00;;;;;;;10.46;57.37;100076.91;10314583;28;20360;-70
2021/04/30 17:24:55;;;;;;;42.92;22.33;;;;;;;10.55;57.28;100080.66;10325702;28;20242;-69
2021/04/30 17:29:57;;;;;;;35.70;19.83;;;;;;;10.47;57.12;100080.44;10291957;28;20274;-68
2021/04/30 17:35:01;;;;;;;34.92;20.52;;;;;;;10.46;57.45;100084.97;10273116;28;20735;-69
2021/04/30 17:40:04;;;;;;;39.45;20.73;;;;;;;10.37;57.63;100091.97;10272969;28;20358;-70
2021/04/30 17:45:08;;;;;;;34.42;19.65;;;;;;;10.28;57.86;100084.69;10272275;28;20571;-68
2021/04/30 17:50:12;;;;;;;35.22;19.48;;;;;;;10.22;57.99;100085.22;10272434;28;20259;-68
2021/04/30 17:55:29;;;;;;;38.08;19.38;;;;;;;10.17;58.48;100076.69;10271131;28;20235;-69
2021/04/30 18:00:32;;;;;;;38.50;21.25;;;;;;;10.21;58.23;100078.16;10272622;28;20258;-69
2021/04/30 18:05:35;;;;;;;40.50;19.17;;;;;;;10.19;57.59;100085.47;10271265;28;20968;-69
2021/04/30 18:10:38;;;;;;;34.58;19.65;;;;;;;10.18;57.49;100094.53;10272665;28;20243;-69
2021/04/30 18:15:40;;;;;;;37.60;19.20;;;;;;;10.13;57.78;100094.91;10290627;28;20251;-70
2021/04/30 18:20:43;;;;;;;35.40;19.67;;;;;;;10.06;57.96;100088.31;10268753;28;20240;-69
2021/04/30 18:25:46;;;;;;;38.08;19.75;;;;;;;9.91;58.73;100093.16;10229472;28;20232;-69
2021/04/30 18:30:48;;;;;;;32.85;19.60;;;;;;;9.88;59.17;100095.25;10229795;28;20240;-68
2021/04/30 18:35:51;;;;;;;36.58;19.63;;;;;;;9.87;59.17;100094.41;10231111;28;20232;-69
2021/04/30 18:40:53;;;;;;;37.70;20.02;;;;;;;9.85;59.36;100101.69;10229594;28;20244;-69
2021/04/30 18:46:14;;;;;;;44.63;22.65;;;;;;;9.82;59.74;100107.31;10240777;28;20262;-69
2021/04/30 18:51:16;;;;;;;37.65;20.35;;;;;;;9.66;60.47;100107.69;10239586;28;20243;-69
2021/04/30 18:56:18;;;;;;;42.92;21.63;;;;;;;9.56;60.78;100109.41;10263072;28;20278;-70
2021/04/30 19:01:20;;;;;;;38.30;20.65;;;;;;;9.55;60.99;100113.09;10245295;28;21702;-69
2021/04/30 19:06:23;;;;;;;41.13;22.65;;;;;;;9.51;60.96;100122.34;10238536;28;20247;-69
2021/04/30 19:11:25;;;;;;;39.45;20.88;;;;;;;9.46;61.13;100125.41;10255255;28;20246;-71
2021/04/30 19:16:27;;;;;;;37.70;22.00;;;;;;;9.43;61.39;100130.16;10275808;28;20235;-70
2021/04/30 19:21:33;;;;;;;42.15;21.60;;;;;;;9.43;61.72;100139.03;10310124;28;20227;-71
2021/04/30 19:26:35;;;;;;;42.35;23.65;;;;;;;9.35;62.05;100136.16;10308688;28;20254;-70
2021/04/30 19:31:37;;;;;;;47.83;22.98;;;;;;;9.33;62.46;100139.94;10323626;28;20238;-70
2021/04/30 19:36:40;;;;;;;49.42;24.80;;;;;;;9.29;62.76;100136.63;10308365;28;20359;-70
2021/04/30 19:41:42;;;;;;;44.75;22.30;;;;;;;9.31;63.03;100142.72;10308218;28;20238;-71
2021/04/30 19:46:44;;;;;;;43.78;22.45;;;;;;;9.32;62.98;100141.72;10267548;28;20239;-70
2021/04/30 19:51:47;;;;;;;44.78;23.05;;;;;;;9.30;62.87;100143.69;10227071;28;21438;-69
2021/04/30 19:56:49;;;;;;;44.72;22.80;;;;;;;9.22;63.29;100148.81;10243396;28;20243;-70
2021/04/30 20:01:51;;;;;;;45.60;23.35;;;;;;;9.24;63.54;100146.84;10236887;28;20240;-70
2021/04/30 20:06:54;;;;;;;50.65;25.08;;;;;;;9.22;63.21;100151.50;10230392;28;20255;-70
2021/04/30 20:11:56;;;;;;;49.80;25.38;;;;;;;9.21;63.10;100145.25;10225922;28;20267;-69
2021/04/30 20:16:57;;;;;;;45.92;23.27;;;;;;;9.22;63.21;100151.50;10286924;28;20858;-71
2021/04/30 20:22:00;;;;;;;51.78;25.05;;;;;;;9.24;62.97;100155.75;10307325;28;20249;-72
2021/04/30 20:27:03;;;;;;;48.72;23.92;;;;;;;9.23;62.76;100161.22;10308229;28;20241;-72
2021/04/30 20:32:07;;;;;;;50.35;26.15;;;;;;;9.14;62.84;100161.97;10308124;28;20250;-72
2021/04/30 20:37:10;;;;;;;53.20;26.20;;;;;;;9.16;63.05;100151.97;10293200;28;20242;-71
2021/04/30 20:42:13;;;;;;;54.30;27.40;;;;;;;9.15;63.11;100150.25;10253987;28;21489;-71
2021/04/30 20:47:15;;;;;;;54.17;25.48;;;;;;;9.13;63.17;100160.25;10235217;28;20243;-71
2021/04/30 20:52:18;;;;;;;59.33;27.52;;;;;;;9.24;62.84;100157.56;10234016;28;20236;-72
2021/04/30 20:57:20;;;;;;;56.22;26.80;;;;;;;9.29;63.12;100160.75;10235787;28;20610;-71
2021/04/30 21:02:21;;;;;;;57.20;26.13;;;;;;;9.27;63.16;100165.41;10236714;28;20232;-71
2021/04/30 21:07:24;;;;;;;54.17;26.52;;;;;;;9.23;63.37;100162.09;10235974;28;20236;-72
2021/04/30 21:12:33;;;;;;;57.70;27.17;;;;;;;9.25;63.38;100164.66;10234387;28;20698;-71
2021/04/30 21:17:36;;;;;;;52.65;26.02;;;;;;;9.22;63.59;100173.78;10318460;28;20250;-71
2021/04/30 21:22:38;;;;;;;56.72;27.60;;;;;;;9.26;63.74;100163.66;10314011;28;20665;-70
2021/04/30 21:27:40;;;;;;;55.15;26.52;;;;;;;9.24;63.87;100176.31;10314037;28;20235;-70
2021/04/30 21:32:42;;;;;;;61.47;26.92;;;;;;;9.19;64.05;100178.53;10283343;28;20315;-72
2021/04/30 21:37:45;;;;;;;53.92;25.30;;;;;;;9.18;64.06;100184.84;10274816;28;20297;-70
2021/04/30 21:42:51;;;;;;;52.22;26.27;;;;;;;9.13;64.27;100184.34;10276531;28;20258;-71
2021/04/30 21:47:53;;;;;;;57.35;28.17;;;;;;;9.03;64.46;100184.25;10271889;28;20615;-70
2021/04/30 21:52:56;;;;;;;55.97;28.00;;;;;;;8.98;64.26;100194.47;10273597;28;20244;-70
2021/04/30 21:57:58;;;;;;;57.45;28.13;;;;;;;8.94;64.50;100190.28;10273063;28;20771;-70
2021/04/30 22:03:00;;;;;;;54.78;27.17;;;;;;;8.88;64.75;100196.97;10272815;28;20230;-71
2021/04/30 22:08:04;;;;;;;58.10;27.70;;;;;;;8.75;65.09;100198.88;10273211;28;20390;-71
2021/04/30 22:13:06;;;;;;;62.85;28.63;;;;;;;8.69;65.37;100208.25;10270379;28;20885;-71
2021/04/30 22:18:09;;;;;;;61.00;28.85;;;;;;;8.66;65.72;100208.47;10311095;28;20720;-71
2021/04/30 22:23:12;;;;;;;63.28;29.17;;;;;;;8.59;66.16;100210.78;10311607;28;20242;-71
2021/04/30 22:28:14;;;;;;;64.32;30.52;;;;;;;8.59;66.11;100223.31;10312307;28;20239;-71
2021/04/30 22:33:16;;;;;;;64.32;30.17;;;;;;;8.47;66.24;100214.38;10310133;28;20588;-71
2021/04/30 22:38:22;;;;;;;58.17;30.27;;;;;;;8.36;66.39;100215.16;10311748;28;20246;-71
2021/04/30 22:43:24;;;;;;;61.97;29.77;;;;;;;8.27;66.97;100220.31;10310631;28;20243;-71
2021/04/30 22:48:26;;;;;;;63.20;28.83;;;;;;;8.20;66.97;100221.72;10310552;28;20261;-71
2021/04/30 22:53:28;;;;;;;60.47;29.10;;;;;;;8.14;67.26;100221.22;10312585;28;20643;-71
2021/04/30 22:58:30;;;;;;;67.35;30.85;;;;;;;8.02;67.26;100219.44;10325574;28;20235;-71